createdAt,value
2023-02-25T00:01:34.394Z,70.58
2023-02-25T00:04:01.213Z,72.17
2023-02-25T00:06:27.865Z,70.82
2023-02-25T00:08:54.922Z,71.19
2023-02-25T00:11:22.830Z,70.33
2023-02-25T00:13:49.507Z,70.84
2023-02-25T00:16:16.927Z,69.44
2023-02-25T00:18:46.922Z,69.31
2023-02-25T00:21:15.895Z,70.39
2023-02-25T00:23:47.635Z,70.43
2023-02-25T00:26:15.192Z,70.68
2023-02-25T00:28:42.209Z,69.93
2023-02-25T00:31:10.935Z,70.59
2023-02-25T00:33:41.758Z,70.03
2023-02-25T00:36:10.341Z,70.17
2023-02-25T00:38:36.859Z,70.88
2023-02-25T00:41:15.084Z,71.17
2023-02-25T00:43:43.407Z,70.55
2023-02-25T00:46:10.913Z,70.70
2023-02-25T00:48:37.730Z,70.36
2023-02-25T00:51:17.672Z,69.63
2023-02-25T00:53:44.498Z,68.87
2023-02-25T00:56:15.912Z,68.69
2023-02-25T00:58:43.774Z,68.27
2023-02-25T01:01:29.012Z,66.94
2023-02-25T01:03:56.916Z,66.88
2023-02-25T01:06:25.562Z,66.91
2023-02-25T01:08:54.079Z,67.74
2023-02-25T01:11:27.082Z,67.88
2023-02-25T01:13:54.622Z,66.72
2023-02-25T01:16:24.308Z,66.54
2023-02-25T01:18:56.191Z,67.07
2023-02-25T01:21:27.578Z,65.84
2023-02-25T01:24:00.469Z,65.63
2023-02-25T01:26:28.987Z,66.66
2023-02-25T01:28:55.889Z,67.44
2023-02-25T01:31:29.343Z,66.42
2023-02-25T01:34:00.459Z,65.98
2023-02-25T01:36:28.228Z,67.38
2023-02-25T01:38:56.042Z,66.00
2023-02-25T01:41:27.087Z,66.51
2023-02-25T01:44:14.632Z,67.36
2023-02-25T01:46:43.792Z,68.35
2023-02-25T01:49:20.352Z,68.97
2023-02-25T01:51:49.579Z,68.69
2023-02-25T01:54:16.440Z,68.95
2023-02-25T01:56:48.223Z,69.49
2023-02-25T01:59:15.702Z,69.32
2023-02-25T02:01:42.718Z,69.11
2023-02-25T02:04:12.136Z,69.56
2023-02-25T02:06:44.164Z,68.55
2023-02-25T02:09:16.757Z,68.27
2023-02-25T02:11:43.358Z,68.63
2023-02-25T02:14:13.463Z,68.71
2023-02-25T02:17:06.990Z,67.77
2023-02-25T02:19:41.966Z,69.30
2023-02-25T02:22:13.021Z,70.72
2023-02-25T02:24:58.873Z,69.66
2023-02-25T02:28:02.482Z,68.99
2023-02-25T02:30:47.899Z,70.68
2023-02-25T02:33:38.671Z,69.57
2023-02-25T02:36:18.644Z,68.85
2023-02-25T02:38:53.028Z,70.34
2023-02-25T02:41:36.693Z,70.64
2023-02-25T02:44:15.439Z,70.38
2023-02-25T02:46:51.817Z,69.90
2023-02-25T02:49:24.405Z,69.99
2023-02-25T02:51:57.193Z,70.38
2023-02-25T02:54:25.701Z,69.89
2023-02-25T02:56:54.224Z,71.13
2023-02-25T02:59:25.638Z,70.77
2023-02-25T03:02:04.329Z,71.79
2023-02-25T03:04:34.869Z,71.96
2023-02-25T03:07:07.576Z,72.66
2023-02-25T03:09:38.329Z,73.69
2023-02-25T03:12:05.007Z,73.99
2023-02-25T03:14:31.474Z,73.20
2023-02-25T03:17:06.705Z,72.67
2023-02-25T03:19:40.481Z,71.21
2023-02-25T03:22:10.603Z,71.31
2023-02-25T03:24:45.607Z,71.16
2023-02-25T03:27:28.512Z,69.97
2023-02-25T03:30:02.202Z,70.25
2023-02-25T03:32:29.792Z,70.79
2023-02-25T03:34:58.068Z,71.83
2023-02-25T03:37:29.678Z,70.78
2023-02-25T03:39:59.710Z,71.05
2023-02-25T03:42:33.068Z,71.14
2023-02-25T03:45:03.889Z,72.13
2023-02-25T03:47:32.967Z,72.42
2023-02-25T03:50:05.878Z,70.73
2023-02-25T03:52:32.476Z,70.42
2023-02-25T03:54:59.019Z,71.06
2023-02-25T03:57:34.734Z,71.10
2023-02-25T04:00:01.349Z,70.29
2023-02-25T04:02:31.357Z,70.99
2023-02-25T04:04:58.541Z,70.69
2023-02-25T04:07:25.147Z,72.13
2023-02-25T04:09:51.588Z,70.68
2023-02-25T04:12:18.040Z,72.38
2023-02-25T04:14:44.631Z,71.63
2023-02-25T04:17:13.082Z,71.25
2023-02-25T04:19:39.645Z,70.73
2023-02-25T04:22:08.055Z,70.58
2023-02-25T04:24:34.554Z,69.62
2023-02-25T04:27:01.787Z,69.67
2023-02-25T04:29:29.193Z,69.73
2023-02-25T04:31:56.021Z,68.53
2023-02-25T04:34:23.217Z,70.62
2023-02-25T04:36:49.997Z,70.68
2023-02-25T04:39:18.052Z,70.67
2023-02-25T04:41:45.024Z,71.92
2023-02-25T04:44:11.772Z,71.98
2023-02-25T04:46:41.929Z,72.36
2023-02-25T04:49:09.718Z,73.09
2023-02-25T04:51:38.289Z,74.06
2023-02-25T04:54:05.162Z,73.31
2023-02-25T04:56:31.686Z,72.99
2023-02-25T04:58:58.462Z,72.04
2023-02-25T05:01:24.950Z,72.85
2023-02-25T05:03:56.707Z,72.05
2023-02-25T05:06:24.828Z,72.46
2023-02-25T05:08:51.512Z,72.50
2023-02-25T05:11:18.926Z,72.49
2023-02-25T05:13:45.852Z,71.88
2023-02-25T05:16:16.623Z,71.34
2023-02-25T05:18:44.973Z,70.50
2023-02-25T05:21:16.508Z,71.59
2023-02-25T05:23:44.441Z,71.80
2023-02-25T05:26:11.765Z,72.23
2023-02-25T05:28:38.520Z,73.10
2023-02-25T05:31:10.512Z,72.00
2023-02-25T05:33:38.541Z,72.87
2023-02-25T05:36:06.995Z,72.95
2023-02-25T05:38:33.879Z,74.08
2023-02-25T05:41:00.998Z,72.88
2023-02-25T05:43:27.494Z,73.31
2023-02-25T05:45:57.990Z,73.19
2023-02-25T05:48:24.636Z,73.23
2023-02-25T05:50:52.017Z,73.21
2023-02-25T05:53:19.453Z,73.99
2023-02-25T05:55:46.577Z,72.97
2023-02-25T05:58:13.451Z,73.04
2023-02-25T06:00:39.945Z,71.95
2023-02-25T06:03:06.794Z,73.32
2023-02-25T06:05:33.311Z,73.70
2023-02-25T06:08:00.006Z,73.22
2023-02-25T06:10:27.102Z,72.70
2023-02-25T06:12:53.651Z,71.88
2023-02-25T06:15:20.133Z,71.85
2023-02-25T06:17:46.588Z,72.57
2023-02-25T06:20:16.470Z,72.14
2023-02-25T06:22:43.482Z,72.53
2023-02-25T06:25:10.265Z,71.71
2023-02-25T06:27:36.802Z,71.51
2023-02-25T06:30:04.314Z,71.41
2023-02-25T06:32:30.930Z,71.93
2023-02-25T06:34:57.534Z,71.67
2023-02-25T06:37:24.046Z,72.00
2023-02-25T06:39:52.555Z,71.89
2023-02-25T06:42:19.448Z,71.22
2023-02-25T06:44:46.105Z,72.52
2023-02-25T06:47:12.658Z,71.70
2023-02-25T06:49:39.377Z,71.78
2023-02-25T06:52:06.125Z,72.45
2023-02-25T06:54:32.801Z,72.98
2023-02-25T06:57:00.720Z,72.12
2023-02-25T06:59:27.437Z,71.96
2023-02-25T07:01:54.062Z,70.66
2023-02-25T07:04:20.662Z,71.77
2023-02-25T07:06:47.441Z,72.02
2023-02-25T07:09:13.931Z,71.27
2023-02-25T07:11:40.522Z,70.90
2023-02-25T07:14:07.105Z,72.04
2023-02-25T07:16:34.642Z,71.63
2023-02-25T07:19:02.372Z,72.08
2023-02-25T07:21:30.999Z,71.18
2023-02-25T07:23:58.385Z,69.52
2023-02-25T07:26:28.334Z,69.87
2023-02-25T07:28:59.606Z,69.94
2023-02-25T07:31:27.966Z,70.30
2023-02-25T07:33:55.085Z,69.83
2023-02-25T07:36:21.785Z,67.73
2023-02-25T07:38:51.132Z,67.71
2023-02-25T07:41:19.413Z,66.20
2023-02-25T07:43:46.311Z,66.18
2023-02-25T07:46:15.771Z,65.60
2023-02-25T07:48:42.481Z,64.88
2023-02-25T07:51:15.551Z,65.54
2023-02-25T07:53:42.031Z,66.71
2023-02-25T07:56:09.233Z,66.37
2023-02-25T07:58:36.802Z,65.91
2023-02-25T08:01:10.004Z,64.54
2023-02-25T08:03:36.901Z,63.96
2023-02-25T08:06:07.843Z,64.06
2023-02-25T08:08:35.672Z,63.22
2023-02-25T08:11:10.633Z,63.44
2023-02-25T08:13:37.759Z,63.25
2023-02-25T08:16:05.983Z,63.57
2023-02-25T08:18:32.588Z,63.82
2023-02-25T08:21:01.369Z,65.64
2023-02-25T08:23:29.189Z,66.36
2023-02-25T08:25:56.712Z,65.68
2023-02-25T08:28:25.027Z,65.92
2023-02-25T08:30:51.930Z,66.33
2023-02-25T08:33:18.620Z,63.51
2023-02-25T08:35:45.226Z,63.27
2023-02-25T08:38:12.866Z,61.15
2023-02-25T08:40:40.215Z,60.33
2023-02-25T08:43:07.587Z,59.54
2023-02-25T08:45:34.849Z,62.50
2023-02-25T08:48:01.320Z,63.23
2023-02-25T08:50:27.969Z,62.92
2023-02-25T08:52:54.581Z,63.37
2023-02-25T08:55:24.666Z,63.24
2023-02-25T08:57:52.564Z,62.55
2023-02-25T09:00:21.107Z,61.89
2023-02-25T09:02:48.118Z,61.38
2023-02-25T09:05:14.579Z,62.02
2023-02-25T09:07:41.101Z,61.20
2023-02-25T09:10:09.202Z,61.38
2023-02-25T09:12:38.154Z,64.33
2023-02-25T09:15:05.478Z,63.60
2023-02-25T09:17:32.119Z,63.70
2023-02-25T09:20:01.217Z,62.20
2023-02-25T09:22:28.465Z,62.34
2023-02-25T09:24:55.746Z,61.81
2023-02-25T09:27:22.386Z,61.61
2023-02-25T09:29:48.994Z,61.07
2023-02-25T09:32:19.680Z,58.94
2023-02-25T09:34:49.046Z,57.36
2023-02-25T09:37:16.850Z,54.20
2023-02-25T09:39:43.617Z,51.42
2023-02-25T09:42:14.321Z,52.01
2023-02-25T09:45:00.929Z,51.43
2023-02-25T09:47:27.489Z,49.32
2023-02-25T09:49:59.465Z,47.26
2023-02-25T09:52:43.585Z,47.81
2023-02-25T09:55:35.977Z,48.57
2023-02-25T09:58:11.565Z,45.74
2023-02-25T10:00:46.175Z,40.95
2023-02-25T10:03:38.416Z,41.65
2023-02-25T10:06:27.688Z,41.38
2023-02-25T10:09:10.135Z,38.21
2023-02-25T10:11:39.610Z,35.86
2023-02-25T10:14:06.345Z,33.84
2023-02-25T10:16:40.043Z,40.26
2023-02-25T10:19:28.736Z,47.67
2023-02-25T10:22:20.186Z,51.24
2023-02-25T10:24:50.396Z,52.98
2023-02-25T10:27:19.503Z,56.30
2023-02-25T10:29:49.766Z,55.08
2023-02-25T10:32:21.229Z,55.19
2023-02-25T10:34:49.373Z,53.74
2023-02-25T10:37:21.188Z,53.90
2023-02-25T10:39:48.665Z,55.97
2023-02-25T10:42:16.389Z,56.10
2023-02-25T10:44:44.668Z,55.14
2023-02-25T10:47:15.691Z,55.98
2023-02-25T10:50:27.610Z,57.42
2023-02-25T10:53:05.583Z,57.97
2023-02-25T10:55:44.394Z,58.71
2023-02-25T10:58:28.425Z,57.78
2023-02-25T11:00:59.598Z,57.39
2023-02-25T11:03:29.508Z,57.03
2023-02-25T11:06:35.628Z,57.99
2023-02-25T11:09:27.064Z,57.62
2023-02-25T11:12:19.818Z,57.14
2023-02-25T11:14:46.624Z,56.32
2023-02-25T11:17:20.154Z,55.97
2023-02-25T11:19:47.482Z,53.71
2023-02-25T11:22:29.642Z,50.05
2023-02-25T11:24:59.691Z,47.86
2023-02-25T11:27:33.761Z,43.49
2023-02-25T11:30:07.966Z,40.78
2023-02-25T11:32:34.942Z,38.73
2023-02-25T11:35:10.300Z,37.87
2023-02-25T11:37:49.522Z,37.16
2023-02-25T11:40:22.702Z,33.21
2023-02-25T11:43:18.611Z,28.43
2023-02-25T11:45:57.610Z,21.41
2023-02-25T11:48:30.089Z,23.60
2023-02-25T11:51:29.248Z,28.09
2023-02-25T11:54:11.283Z,31.03
2023-02-25T11:56:48.646Z,32.27
2023-02-25T11:59:31.773Z,32.21
2023-02-25T12:02:27.650Z,31.87
2023-02-25T12:05:16.715Z,30.42
2023-02-25T12:08:13.334Z,35.11
2023-02-25T12:11:05.399Z,34.41
2023-02-25T12:14:02.707Z,32.15
2023-02-25T12:16:38.330Z,27.16
2023-02-25T12:19:14.153Z,20.60
2023-02-25T12:22:14.721Z,24.12
2023-02-25T12:24:41.172Z,25.77
2023-02-25T12:27:38.771Z,29.06
2023-02-25T12:30:31.512Z,30.87
2023-02-25T12:33:11.874Z,30.47
2023-02-25T12:36:03.844Z,24.82
2023-02-25T12:38:37.546Z,24.95
2023-02-25T12:41:22.979Z,26.29
2023-02-25T12:44:31.552Z,29.77
2023-02-25T12:47:17.606Z,30.71
2023-02-25T12:50:09.199Z,33.24
2023-02-25T12:52:51.493Z,33.84
2023-02-25T12:55:35.506Z,34.60
2023-02-25T12:58:29.217Z,33.35
2023-02-25T13:01:13.962Z,34.02
2023-02-25T13:03:58.837Z,32.92
2023-02-25T13:06:56.985Z,33.97
2023-02-25T13:09:44.746Z,33.29
2023-02-25T13:12:23.135Z,34.25
2023-02-25T13:15:08.948Z,35.52
2023-02-25T13:17:46.320Z,35.17
2023-02-25T13:20:31.260Z,34.87
2023-02-25T13:23:06.596Z,34.80
2023-02-25T13:25:46.849Z,32.48
2023-02-25T13:28:42.857Z,32.72
2023-02-25T13:31:19.203Z,31.72
2023-02-25T13:33:57.901Z,30.79
2023-02-25T13:37:00.030Z,31.04
2023-02-25T13:39:44.593Z,31.09
2023-02-25T13:42:32.531Z,32.56
2023-02-25T13:45:22.814Z,31.23
2023-02-25T13:48:17.368Z,31.89
2023-02-25T13:50:44.187Z,31.64
2023-02-25T13:53:23.750Z,31.78
2023-02-25T13:56:18.351Z,30.28
2023-02-25T13:59:21.982Z,32.06
2023-02-25T14:02:18.784Z,31.91
2023-02-25T14:05:09.106Z,31.88
2023-02-25T14:07:55.330Z,32.81
2023-02-25T14:10:29.239Z,30.64
2023-02-25T14:13:09.794Z,30.53
2023-02-25T14:15:51.751Z,31.01
2023-02-25T14:18:31.091Z,31.44
2023-02-25T14:21:28.074Z,33.13
2023-02-25T14:24:06.633Z,32.68
2023-02-25T14:26:44.236Z,32.48
2023-02-25T14:29:35.649Z,33.78
2023-02-25T14:32:41.353Z,35.04
2023-02-25T14:35:35.670Z,35.91
2023-02-25T14:38:04.983Z,36.28
2023-02-25T14:40:44.174Z,36.57
2023-02-25T14:43:36.169Z,35.10
2023-02-25T14:46:33.627Z,33.60
2023-02-25T14:49:06.100Z,32.89
2023-02-25T14:51:59.377Z,32.73
2023-02-25T14:54:53.863Z,31.48
2023-02-25T14:57:46.135Z,30.98
2023-02-25T15:00:37.556Z,30.83
2023-02-25T15:03:22.367Z,30.76
2023-02-25T15:06:13.271Z,30.68
2023-02-25T15:09:23.552Z,29.90
2023-02-25T15:12:08.806Z,29.98
2023-02-25T15:14:53.642Z,29.53
2023-02-25T15:17:48.123Z,31.06
2023-02-25T15:20:47.522Z,31.70
2023-02-25T15:23:16.482Z,32.22
2023-02-25T15:26:03.641Z,32.75
2023-02-25T15:28:30.460Z,33.89
2023-02-25T15:31:00.378Z,33.82
2023-02-25T15:33:27.359Z,34.66
2023-02-25T15:35:57.418Z,33.96
2023-02-25T15:38:50.190Z,33.07
2023-02-25T15:41:28.822Z,32.33
2023-02-25T15:44:00.132Z,32.85
2023-02-25T15:46:35.861Z,32.67
2023-02-25T15:49:10.300Z,33.10
2023-02-25T15:51:58.179Z,33.60
2023-02-25T15:54:27.729Z,32.71
2023-02-25T15:57:01.165Z,33.50
2023-02-25T15:59:47.529Z,33.77
2023-02-25T16:02:29.153Z,34.80
2023-02-25T16:05:20.580Z,33.45
2023-02-25T16:07:50.319Z,34.71
2023-02-25T16:10:23.580Z,33.52
2023-02-25T16:12:53.765Z,33.66
2023-02-25T16:15:35.167Z,33.91
2023-02-25T16:18:15.968Z,33.87
2023-02-25T16:20:47.230Z,34.60
2023-02-25T16:23:15.154Z,33.85
2023-02-25T16:26:05.580Z,33.79
2023-02-25T16:29:02.735Z,33.70
2023-02-25T16:32:07.243Z,34.27
2023-02-25T16:34:41.540Z,34.40
2023-02-25T16:37:22.986Z,34.30
2023-02-25T16:39:49.759Z,34.83
2023-02-25T16:42:18.112Z,35.99
2023-02-25T16:44:47.539Z,35.95
2023-02-25T16:47:36.640Z,36.16
2023-02-25T16:50:07.761Z,36.83
2023-02-25T16:52:38.556Z,36.84
2023-02-25T16:55:12.310Z,36.40
2023-02-25T16:57:39.439Z,37.05
2023-02-25T17:00:06.208Z,36.78
2023-02-25T17:02:33.601Z,36.67
2023-02-25T17:05:00.050Z,36.43
2023-02-25T17:07:28.051Z,37.43
2023-02-25T17:10:00.797Z,36.33
2023-02-25T17:12:32.240Z,37.74
2023-02-25T17:15:00.891Z,37.55
2023-02-25T17:17:33.075Z,37.54
2023-02-25T17:20:01.102Z,36.53
2023-02-25T17:22:27.872Z,38.18
2023-02-25T17:24:57.081Z,37.46
2023-02-25T17:27:24.368Z,37.38
2023-02-25T17:29:51.257Z,37.83
2023-02-25T17:32:27.187Z,38.11
2023-02-25T17:34:55.934Z,36.88
2023-02-25T17:37:23.145Z,37.76
2023-02-25T17:39:50.183Z,37.24
2023-02-25T17:42:26.988Z,37.46
2023-02-25T17:44:53.484Z,37.13
2023-02-25T17:47:24.416Z,39.03
2023-02-25T17:49:51.212Z,38.72
2023-02-25T17:52:23.222Z,38.79
2023-02-25T17:55:23.824Z,39.35
2023-02-25T17:57:51.320Z,39.04
2023-02-25T18:00:18.609Z,39.03
2023-02-25T18:02:45.401Z,38.67
2023-02-25T18:05:11.939Z,39.00
2023-02-25T18:07:43.089Z,38.71
2023-02-25T18:10:33.334Z,39.62
2023-02-25T18:13:02.207Z,39.12
2023-02-25T18:15:33.665Z,40.03
2023-02-25T18:18:03.639Z,40.77
2023-02-25T18:20:34.346Z,40.08
2023-02-25T18:23:15.616Z,40.54
2023-02-25T18:25:47.951Z,40.46
2023-02-25T18:28:17.440Z,40.49
2023-02-25T18:30:44.795Z,40.75
2023-02-25T18:33:11.809Z,40.00
2023-02-25T18:35:40.180Z,40.19
2023-02-25T18:38:07.116Z,40.55
2023-02-25T18:40:39.411Z,40.51
2023-02-25T18:43:06.981Z,40.10
2023-02-25T18:45:34.543Z,40.94
2023-02-25T18:48:01.705Z,40.67
2023-02-25T18:50:32.450Z,40.74
2023-02-25T18:52:59.885Z,41.25
2023-02-25T18:55:28.762Z,41.08
2023-02-25T18:57:55.631Z,41.66
2023-02-25T19:00:23.751Z,40.93
2023-02-25T19:02:51.304Z,41.20
2023-02-25T19:05:19.995Z,41.84
2023-02-25T19:07:46.895Z,41.69
2023-02-25T19:10:28.618Z,42.11
2023-02-25T19:13:02.777Z,42.57
2023-02-25T19:15:30.176Z,42.96
2023-02-25T19:17:56.898Z,42.82
2023-02-25T19:20:23.624Z,42.99
2023-02-25T19:22:52.603Z,43.23
2023-02-25T19:25:28.341Z,43.45
2023-02-25T19:27:56.247Z,43.58
2023-02-25T19:30:31.145Z,43.68
2023-02-25T19:33:04.406Z,43.26
2023-02-25T19:35:33.778Z,43.17
2023-02-25T19:38:00.794Z,43.32
2023-02-25T19:40:28.998Z,43.54
2023-02-25T19:42:55.877Z,43.90
2023-02-25T19:45:24.042Z,43.70
2023-02-25T19:47:51.230Z,43.83
2023-02-25T19:50:19.769Z,43.64
2023-02-25T19:52:46.744Z,44.10
2023-02-25T19:55:14.430Z,43.86
2023-02-25T19:57:41.687Z,44.30
2023-02-25T20:00:11.664Z,44.95
2023-02-25T20:02:38.585Z,44.64
2023-02-25T20:05:05.888Z,44.47
2023-02-25T20:07:32.968Z,44.91
2023-02-25T20:10:00.475Z,44.02
2023-02-25T20:12:27.144Z,44.34
2023-02-25T20:14:53.731Z,44.12
2023-02-25T20:17:20.312Z,44.31
2023-02-25T20:19:47.671Z,43.71
2023-02-25T20:22:14.384Z,43.64
2023-02-25T20:24:40.902Z,43.06
2023-02-25T20:27:07.428Z,42.71
2023-02-25T20:29:34.149Z,42.36
2023-02-25T20:32:00.846Z,45.23
2023-02-25T20:34:28.120Z,49.91
2023-02-25T20:37:11.124Z,50.78
2023-02-25T20:39:37.570Z,50.86
2023-02-25T20:42:11.194Z,52.35
2023-02-25T20:44:38.408Z,52.40
2023-02-25T20:47:05.913Z,53.53
2023-02-25T20:49:34.869Z,54.03
2023-02-25T20:52:01.691Z,53.79
2023-02-25T20:54:30.793Z,54.81
2023-02-25T20:56:57.433Z,54.63
2023-02-25T20:59:23.908Z,54.65
2023-02-25T21:01:50.457Z,53.93
2023-02-25T21:04:16.997Z,53.70
2023-02-25T21:06:43.612Z,54.89
2023-02-25T21:09:10.326Z,54.12
2023-02-25T21:11:36.919Z,54.16
2023-02-25T21:14:03.682Z,54.31
2023-02-25T21:16:32.253Z,53.96
2023-02-25T21:18:59.027Z,53.16
2023-02-25T21:21:26.821Z,52.74
2023-02-25T21:23:53.528Z,53.10
2023-02-25T21:26:20.128Z,52.67
2023-02-25T21:28:46.683Z,52.18
2023-02-25T21:31:15.453Z,52.55
2023-02-25T21:33:42.353Z,52.54
2023-02-25T21:36:10.312Z,52.98
2023-02-25T21:38:38.971Z,52.68
2023-02-25T21:41:11.420Z,53.62
2023-02-25T21:43:38.783Z,52.73
2023-02-25T21:46:07.719Z,52.66
2023-02-25T21:48:34.547Z,52.98
2023-02-25T21:51:01.330Z,52.99
2023-02-25T21:53:28.335Z,54.25
2023-02-25T21:55:55.800Z,53.87
2023-02-25T21:58:23.006Z,54.60
2023-02-25T22:00:50.342Z,53.83
2023-02-25T22:03:17.156Z,53.37
2023-02-25T22:05:45.850Z,53.86
2023-02-25T22:08:13.214Z,53.84
2023-02-25T22:10:40.848Z,53.43
2023-02-25T22:13:08.428Z,53.74
2023-02-25T22:15:35.454Z,53.56
2023-02-25T22:18:02.074Z,54.44
2023-02-25T22:20:28.939Z,54.97
2023-02-25T22:22:57.971Z,55.52
2023-02-25T22:25:24.520Z,54.75
2023-02-25T22:27:52.078Z,54.33
2023-02-25T22:30:18.912Z,56.14
2023-02-25T22:32:45.665Z,55.57
2023-02-25T22:35:12.282Z,54.74
2023-02-25T22:37:38.842Z,54.80
2023-02-25T22:40:06.161Z,55.05
2023-02-25T22:42:32.743Z,54.94
2023-02-25T22:44:59.221Z,54.67
2023-02-25T22:47:25.910Z,54.68
2023-02-25T22:49:52.483Z,53.91
2023-02-25T22:52:19.082Z,54.51
2023-02-25T22:54:46.084Z,53.73
2023-02-25T22:57:12.986Z,53.75
2023-02-25T22:59:39.551Z,54.12
2023-02-25T23:02:06.111Z,53.95
2023-02-25T23:04:33.348Z,53.58
2023-02-25T23:07:01.049Z,53.54
2023-02-25T23:09:28.008Z,53.51
2023-02-25T23:11:55.159Z,53.26
2023-02-25T23:14:22.000Z,53.21
2023-02-25T23:16:48.587Z,53.45
2023-02-25T23:19:17.983Z,53.03
2023-02-25T23:21:44.639Z,52.90
2023-02-25T23:24:16.216Z,52.88
2023-02-25T23:26:43.704Z,53.50
2023-02-25T23:29:11.700Z,53.95
2023-02-25T23:31:43.056Z,54.83
2023-02-25T23:34:12.894Z,54.02
2023-02-25T23:36:41.244Z,53.53
2023-02-25T23:39:08.572Z,54.82
2023-02-25T23:41:36.166Z,53.85
2023-02-25T23:44:03.590Z,53.89
2023-02-25T23:46:32.100Z,53.81
2023-02-25T23:49:01.382Z,53.40
2023-02-25T23:51:28.667Z,53.24
2023-02-25T23:53:56.699Z,52.99
2023-02-25T23:56:24.206Z,53.08
2023-02-25T23:58:53.661Z,52.53
